createdAt,value
2018-07-28T00:01:02.783Z,102782.81
2018-07-28T00:03:31.446Z,102784.91
2018-07-28T00:06:00.229Z,102781.27
2018-07-28T00:08:29.017Z,102782.02
2018-07-28T00:10:57.770Z,102780.24
2018-07-28T00:13:26.555Z,102778.18
2018-07-28T00:15:55.265Z,102777.53
2018-07-28T00:18:23.957Z,102772.20
2018-07-28T00:20:52.728Z,102777.46
2018-07-28T00:23:21.437Z,102766.81
2018-07-28T00:25:55.403Z,102769.88
2018-07-28T00:28:24.112Z,102779.04
2018-07-28T00:30:52.819Z,102772.97
2018-07-28T00:33:21.536Z,102770.84
2018-07-28T00:35:50.447Z,102774.64
2018-07-28T00:38:19.185Z,102773.89
2018-07-28T00:40:47.920Z,102766.27
2018-07-28T00:43:16.743Z,102768.95
2018-07-28T00:45:45.481Z,102765.62
2018-07-28T00:48:14.092Z,102761.26
2018-07-28T00:50:42.708Z,102757.07
2018-07-28T00:53:11.521Z,102758.27
2018-07-28T00:55:40.198Z,102752.92
2018-07-28T00:58:09.021Z,102753.53
2018-07-28T01:00:37.780Z,102748.94
2018-07-28T01:03:06.420Z,102754.05
2018-07-28T01:05:35.005Z,102746.29
2018-07-28T01:08:03.886Z,102744.84
2018-07-28T01:10:32.606Z,102745.53
2018-07-28T01:13:01.294Z,102744.88
2018-07-28T01:15:29.998Z,102744.64
2018-07-28T01:17:58.663Z,102738.29
2018-07-28T01:20:27.398Z,102736.61
2018-07-28T01:22:56.063Z,102733.31
2018-07-28T01:25:24.783Z,102740.01
2018-07-28T01:27:53.442Z,102736.98
2018-07-28T01:30:28.467Z,102736.40
2018-07-28T01:32:57.502Z,102722.81
2018-07-28T01:35:26.174Z,102738.13
2018-07-28T01:37:55.131Z,102737.98
2018-07-28T01:40:23.756Z,102734.23
2018-07-28T01:42:52.506Z,102734.10
2018-07-28T01:45:21.220Z,102734.86
2018-07-28T01:47:49.863Z,102734.23
2018-07-28T01:50:18.627Z,102738.13
2018-07-28T01:52:47.349Z,102740.77
2018-07-28T01:55:15.998Z,102732.53
2018-07-28T01:57:44.662Z,102734.96
2018-07-28T02:00:13.783Z,102729.84
2018-07-28T02:02:42.654Z,102737.02
2018-07-28T02:05:11.458Z,102728.06
2018-07-28T02:07:40.227Z,102723.22
2018-07-28T02:10:09.453Z,102730.77
2018-07-28T02:12:38.216Z,102732.28
2018-07-28T02:15:07.688Z,102732.31
2018-07-28T02:17:36.449Z,102722.45
2018-07-28T02:20:06.185Z,102719.95
2018-07-28T02:22:34.855Z,102722.94
2018-07-28T02:25:03.619Z,102722.63
2018-07-28T02:27:32.372Z,102726.37
2018-07-28T02:30:01.092Z,102718.61
2018-07-28T02:32:29.695Z,102711.53
2018-07-28T02:34:58.352Z,102717.85
2018-07-28T02:37:27.034Z,102712.33
2018-07-28T02:39:55.705Z,102707.63
2018-07-28T02:42:24.371Z,102708.58
2018-07-28T02:44:53.083Z,102718.14
2018-07-28T02:47:21.846Z,102715.86
2018-07-28T02:49:50.503Z,102705.91
2018-07-28T02:52:19.292Z,102711.80
2018-07-28T02:54:47.978Z,102713.27
2018-07-28T02:57:16.662Z,102714.50
2018-07-28T02:59:45.306Z,102712.84
2018-07-28T03:02:14.033Z,102712.23
2018-07-28T03:04:42.705Z,102711.89
2018-07-28T03:07:11.358Z,102720.80
2018-07-28T03:09:40.064Z,102722.65
2018-07-28T03:12:08.732Z,102725.60
2018-07-28T03:14:37.518Z,102716.24
2018-07-28T03:17:06.389Z,102711.66
2018-07-28T03:19:35.192Z,102712.66
2018-07-28T03:22:04.156Z,102711.58
2018-07-28T03:24:32.982Z,102705.79
2018-07-28T03:27:01.681Z,102712.34
2018-07-28T03:29:30.361Z,102703.02
2018-07-28T03:31:59.225Z,102598.41
2018-07-28T03:34:27.871Z,102706.38
2018-07-28T03:36:56.623Z,102702.14
2018-07-28T03:39:25.335Z,102701.77
2018-07-28T03:41:54.029Z,102703.11
2018-07-28T03:47:53.670Z,102698.75
2018-07-28T03:50:22.253Z,102701.31
2018-07-28T03:52:50.886Z,102700.34
2018-07-28T03:55:19.740Z,102698.02
2018-07-28T03:57:48.442Z,102695.70
2018-07-28T04:00:17.210Z,102691.19
2018-07-28T04:02:46.036Z,102690.93
2018-07-28T04:05:14.744Z,102704.49
2018-07-28T04:07:43.450Z,102702.52
2018-07-28T04:10:12.247Z,102559.78
2018-07-28T04:12:41.044Z,102705.45
2018-07-28T04:15:12.267Z,102710.95
2018-07-28T04:17:59.326Z,102706.56
2018-07-28T04:20:28.278Z,102709.64
2018-07-28T04:22:57.015Z,102706.56
2018-07-28T04:25:25.892Z,102704.85
2018-07-28T04:27:54.642Z,102707.03
2018-07-28T04:30:23.376Z,102708.02
2018-07-28T04:32:52.303Z,102703.51
2018-07-28T04:35:21.007Z,102694.81
2018-07-28T04:37:49.612Z,102696.92
2018-07-28T04:40:18.291Z,102696.05
2018-07-28T04:42:47.028Z,102696.05
2018-07-28T04:45:15.776Z,102699.97
2018-07-28T04:47:44.430Z,102690.78
2018-07-28T04:50:13.202Z,102700.23
2018-07-28T04:52:41.831Z,102700.72
2018-07-28T04:55:10.679Z,102701.70
2018-07-28T04:57:39.339Z,102701.06
2018-07-28T05:00:08.177Z,102694.71
2018-07-28T05:02:36.792Z,102699.01
2018-07-28T05:05:05.587Z,102694.84
2018-07-28T05:07:34.372Z,102696.80
2018-07-28T05:10:03.266Z,102696.17
2018-07-28T05:12:31.972Z,102692.88
2018-07-28T05:15:00.680Z,102694.10
2018-07-28T05:17:29.480Z,102691.28
2018-07-28T05:19:58.140Z,102694.67
2018-07-28T05:22:26.796Z,102693.33
2018-07-28T05:24:55.929Z,102692.48
2018-07-28T05:27:24.659Z,102694.55
2018-07-28T05:29:53.465Z,102702.02
2018-07-28T05:32:22.103Z,102700.66
2018-07-28T05:34:50.853Z,102705.91
2018-07-28T05:37:19.629Z,102717.76
2018-07-28T05:39:48.259Z,102718.72
2018-07-28T05:42:17.043Z,102719.21
2018-07-28T05:44:45.705Z,102721.02
2018-07-28T05:47:14.384Z,102713.67
2018-07-28T05:49:43.116Z,102716.73
2018-07-28T05:52:11.848Z,102715.59
2018-07-28T05:54:40.578Z,102716.37
2018-07-28T05:57:09.250Z,102711.97
2018-07-28T05:59:38.134Z,102719.17
2018-07-28T06:02:07.509Z,102717.91
2018-07-28T06:04:36.228Z,102708.70
2018-07-28T06:07:05.110Z,102712.42
2018-07-28T06:09:33.860Z,102717.95
2018-07-28T06:12:02.529Z,102714.28
2018-07-28T06:14:31.200Z,102714.86
2018-07-28T06:17:00.179Z,102717.17
2018-07-28T06:19:28.866Z,102720.88
2018-07-28T06:21:59.769Z,102714.84
2018-07-28T06:24:28.638Z,102727.53
2018-07-28T06:26:57.403Z,102727.85
2018-07-28T06:29:26.078Z,102729.65
2018-07-28T06:31:54.784Z,102737.40
2018-07-28T06:34:23.496Z,102736.05
2018-07-28T06:36:52.161Z,102624.55
2018-07-28T06:39:20.851Z,102735.24
2018-07-28T06:41:49.626Z,102740.01
2018-07-28T06:44:18.359Z,102733.00
2018-07-28T06:46:47.031Z,102747.64
2018-07-28T06:49:15.887Z,102741.84
2018-07-28T06:51:44.601Z,102742.58
2018-07-28T06:54:13.256Z,102742.55
2018-07-28T06:56:42.145Z,102741.64
2018-07-28T06:59:10.812Z,102745.77
2018-07-28T07:01:39.532Z,102748.73
2018-07-28T07:04:08.474Z,102745.19
2018-07-28T07:06:37.178Z,102750.09
2018-07-28T07:09:08.551Z,102752.73
2018-07-28T07:11:37.232Z,102756.28
2018-07-28T07:14:06.468Z,102755.73
2018-07-28T07:16:35.502Z,102754.75
2018-07-28T07:19:04.291Z,102757.20
2018-07-28T07:21:33.039Z,102757.20
2018-07-28T07:24:01.733Z,102761.96
2018-07-28T07:26:30.387Z,102761.11
2018-07-28T07:28:59.046Z,102758.84
2018-07-28T07:31:27.924Z,102763.70
2018-07-28T07:33:56.634Z,102757.99
2018-07-28T07:36:25.332Z,102765.91
2018-07-28T07:38:54.012Z,102763.45
2018-07-28T07:41:22.662Z,102766.43
2018-07-28T07:43:51.315Z,102772.95
2018-07-28T07:46:20.095Z,102765.30
2018-07-28T07:48:48.823Z,102771.41
2018-07-28T07:51:17.591Z,102770.44
2018-07-28T07:53:46.356Z,102775.81
2018-07-28T07:56:15.100Z,102772.78
2018-07-28T07:58:43.782Z,102766.52
2018-07-28T08:01:12.472Z,102767.83
2018-07-28T08:03:41.146Z,102769.70
2018-07-28T08:06:16.424Z,102766.92
2018-07-28T08:08:45.257Z,102776.96
2018-07-28T08:11:13.942Z,102774.72
2018-07-28T08:13:42.664Z,102782.27
2018-07-28T08:16:11.315Z,102782.05
2018-07-28T08:18:40.013Z,102774.18
2018-07-28T08:21:08.890Z,102774.14
2018-07-28T08:23:37.533Z,102785.20
2018-07-28T08:26:06.716Z,102781.11
2018-07-28T08:28:35.501Z,102780.41
2018-07-28T08:31:04.231Z,102784.97
2018-07-28T08:33:32.878Z,102789.02
2018-07-28T08:36:01.627Z,102782.98
2018-07-28T08:38:30.283Z,102790.08
2018-07-28T08:40:58.965Z,102792.77
2018-07-28T08:43:27.778Z,102796.98
2018-07-28T08:45:56.457Z,102798.30
2018-07-28T08:48:25.144Z,102790.62
2018-07-28T08:50:53.942Z,102795.66
2018-07-28T08:53:22.611Z,102793.13
2018-07-28T08:55:51.320Z,102792.14
2018-07-28T08:58:20.002Z,102793.50
2018-07-28T09:00:48.760Z,102790.08
2018-07-28T09:03:17.396Z,102795.61
2018-07-28T09:05:46.142Z,102788.31
2018-07-28T09:08:14.848Z,102786.33
2018-07-28T09:10:43.530Z,102785.27
2018-07-28T09:13:12.190Z,102650.98
2018-07-28T09:15:40.864Z,102781.27
2018-07-28T09:18:09.835Z,102783.41
2018-07-28T09:20:38.589Z,102779.06
2018-07-28T09:23:07.376Z,102780.02
2018-07-28T09:25:36.169Z,102783.92
2018-07-28T09:28:05.049Z,102781.57
2018-07-28T09:30:33.675Z,102774.17
2018-07-28T09:33:02.262Z,102771.83
2018-07-28T09:35:31.004Z,102782.11
2018-07-28T09:37:59.703Z,102775.89
2018-07-28T09:40:28.587Z,102778.30
2018-07-28T09:42:57.397Z,102776.98
2018-07-28T09:45:26.090Z,102777.38
2018-07-28T09:47:55.005Z,102779.69
2018-07-28T09:50:23.799Z,102768.70
2018-07-28T09:52:52.526Z,102783.27
2018-07-28T09:55:21.430Z,102776.83
2018-07-28T09:57:51.126Z,102780.04
2018-07-28T10:00:24.995Z,102774.54
2018-07-28T10:02:53.764Z,102777.86
2018-07-28T10:05:22.502Z,102784.28
2018-07-28T10:07:51.278Z,102774.27
2018-07-28T10:10:20.092Z,102779.55
2018-07-28T10:12:48.793Z,102774.34
2018-07-28T10:15:17.392Z,102781.76
2018-07-28T10:17:46.084Z,102784.38
2018-07-28T10:20:14.921Z,102772.43
2018-07-28T10:22:43.566Z,102776.30
2018-07-28T10:25:12.216Z,102765.79
2018-07-28T10:27:40.864Z,102761.81
2018-07-28T10:30:10.055Z,102770.62
2018-07-28T10:32:39.796Z,102769.59
2018-07-28T10:35:10.153Z,102762.58
2018-07-28T10:37:39.100Z,102757.98
2018-07-28T10:40:08.641Z,102759.40
2018-07-28T10:42:37.726Z,102757.59
2018-07-28T10:45:06.538Z,102755.77
2018-07-28T10:47:35.287Z,102758.78
2018-07-28T10:50:04.064Z,102761.77
2018-07-28T10:52:32.762Z,102750.80
2018-07-28T10:55:01.403Z,102746.69
2018-07-28T10:57:30.076Z,102759.20
2018-07-28T10:59:58.971Z,102752.13
2018-07-28T11:02:27.575Z,102752.79
2018-07-28T11:04:56.227Z,102745.08
2018-07-28T11:07:24.877Z,102744.38
2018-07-28T11:09:53.693Z,102749.83
2018-07-28T11:12:22.361Z,102745.67
2018-07-28T11:14:50.994Z,102744.83
2018-07-28T11:17:19.772Z,102742.16
2018-07-28T11:19:48.480Z,102745.63
2018-07-28T11:22:17.165Z,102744.82
2018-07-28T11:24:45.983Z,102752.94
2018-07-28T11:27:14.583Z,102748.31
2018-07-28T11:29:43.174Z,102749.88
2018-07-28T11:32:22.847Z,102743.30
2018-07-28T11:35:02.576Z,102750.61
2018-07-28T11:37:53.956Z,102745.40
2018-07-28T11:42:39.597Z,102738.52
2018-07-28T11:45:14.495Z,102739.66
2018-07-28T11:47:43.152Z,102740.16
2018-07-28T11:50:12.256Z,102747.09
2018-07-28T11:52:41.299Z,102744.44
2018-07-28T11:55:09.942Z,102748.33
2018-07-28T11:57:38.654Z,102743.07
2018-07-28T12:00:10.976Z,102739.06
2018-07-28T12:02:39.946Z,102739.58
2018-07-28T12:05:08.938Z,102730.05
2018-07-28T12:07:37.847Z,102730.15
2018-07-28T12:10:07.893Z,102732.48
2018-07-28T12:12:36.717Z,102730.23
2018-07-28T12:15:05.986Z,102731.27
2018-07-28T12:17:34.700Z,102726.11
2018-07-28T12:20:03.571Z,102721.02
2018-07-28T12:22:32.284Z,102723.98
2018-07-28T12:25:00.942Z,102723.44
2018-07-28T12:27:29.607Z,102720.60
2018-07-28T12:29:58.262Z,102723.12
2018-07-28T12:32:26.934Z,102720.58
2018-07-28T12:34:55.668Z,102717.06
2018-07-28T12:37:24.365Z,102722.28
2018-07-28T12:39:53.081Z,102722.38
2018-07-28T12:42:21.802Z,102717.16
2018-07-28T12:44:50.412Z,102729.66
2018-07-28T12:47:19.365Z,102726.05
2018-07-28T12:49:48.028Z,102727.37
2018-07-28T12:52:16.703Z,102722.76
2018-07-28T12:54:45.389Z,102715.84
2018-07-28T12:57:13.998Z,102726.29
2018-07-28T12:59:42.682Z,102717.42
2018-07-28T13:02:11.738Z,102720.67
2018-07-28T13:04:40.520Z,102591.42
2018-07-28T13:07:09.196Z,102705.72
2018-07-28T13:09:37.898Z,102707.32
2018-07-28T13:12:06.559Z,102703.14
2018-07-28T13:14:35.256Z,102696.53
2018-07-28T13:17:03.921Z,102705.06
2018-07-28T13:19:32.770Z,102705.03
2018-07-28T13:22:01.437Z,102704.38
2018-07-28T13:24:30.197Z,102698.82
2018-07-28T13:26:58.988Z,102692.84
2018-07-28T13:29:27.625Z,102687.55
2018-07-28T13:31:56.284Z,102689.02
2018-07-28T13:34:31.151Z,102689.89
2018-07-28T13:36:59.957Z,102692.00
2018-07-28T13:39:28.545Z,102685.55
2018-07-28T13:41:57.192Z,102677.89
2018-07-28T13:44:25.944Z,102683.27
2018-07-28T13:46:54.702Z,102668.20
2018-07-28T13:49:23.395Z,102673.99
2018-07-28T13:51:52.020Z,102675.13
2018-07-28T13:54:20.816Z,102670.32
2018-07-28T13:56:49.542Z,102665.34
2018-07-28T13:59:18.373Z,102660.72
2018-07-28T14:01:47.100Z,102660.07
2018-07-28T14:04:15.780Z,102664.52
2018-07-28T14:06:44.582Z,102671.29
2018-07-28T14:09:13.352Z,102661.92
2018-07-28T14:11:42.144Z,102650.36
2018-07-28T14:14:11.216Z,102642.41
2018-07-28T14:16:39.884Z,102633.41
2018-07-28T14:19:08.790Z,102634.23
2018-07-28T14:21:37.530Z,102634.77
2018-07-28T14:24:06.518Z,102628.17
2018-07-28T14:26:35.336Z,102632.75
2018-07-28T14:29:03.965Z,102623.75
2018-07-28T14:31:32.701Z,102628.98
2018-07-28T14:34:01.406Z,102623.41
2018-07-28T14:36:30.045Z,102621.79
2018-07-28T14:38:58.906Z,102617.28
2018-07-28T14:41:27.520Z,102604.32
2018-07-28T14:43:56.473Z,102612.67
2018-07-28T14:46:25.279Z,102610.84
2018-07-28T14:48:54.099Z,102614.59
2018-07-28T14:51:22.737Z,102619.66
2018-07-28T14:53:51.446Z,102601.18
2018-07-28T14:56:20.131Z,102603.00
2018-07-28T14:58:48.743Z,102600.08
2018-07-28T15:01:17.373Z,102593.50
2018-07-28T15:03:46.017Z,102600.98
2018-07-28T15:06:15.820Z,102596.48
2018-07-28T15:08:44.389Z,102593.14
2018-07-28T15:11:13.046Z,102584.28
2018-07-28T15:13:41.919Z,102584.03
2018-07-28T15:16:11.077Z,102574.85
2018-07-28T15:18:39.879Z,102582.33
2018-07-28T15:21:08.722Z,102580.42
2018-07-28T15:23:37.451Z,102574.21
2018-07-28T15:26:06.243Z,102581.92
2018-07-28T15:28:34.982Z,102580.03
2018-07-28T15:31:03.755Z,102571.20
2018-07-28T15:33:32.367Z,102572.59
2018-07-28T15:36:01.150Z,102576.77
2018-07-28T15:38:30.010Z,102567.02
2018-07-28T15:40:58.677Z,102559.47
2018-07-28T15:43:27.406Z,102565.66
2018-07-28T15:45:56.012Z,102564.43
2018-07-28T15:48:24.751Z,102564.77
2018-07-28T15:50:53.474Z,102563.40
2018-07-28T15:53:22.246Z,102556.95
2018-07-28T15:55:50.969Z,102565.80
2018-07-28T15:58:19.839Z,102566.29
2018-07-28T16:00:48.504Z,102557.66
2018-07-28T16:03:17.257Z,102556.63
2018-07-28T16:05:45.983Z,102553.30
2018-07-28T16:08:14.746Z,102550.02
2018-07-28T16:10:43.421Z,102556.03
2018-07-28T16:13:12.233Z,102554.51
2018-07-28T16:15:40.820Z,102554.92
2018-07-28T16:18:09.480Z,102556.05
2018-07-28T16:20:38.197Z,102551.77
2018-07-28T16:23:07.211Z,102556.81
2018-07-28T16:25:36.432Z,102566.80
2018-07-28T16:28:05.116Z,102570.09
2018-07-28T16:30:33.741Z,102569.02
2018-07-28T16:33:02.657Z,102567.34
2018-07-28T16:35:31.261Z,102563.48
2018-07-28T16:38:00.070Z,102557.55
2018-07-28T16:40:28.793Z,102566.51
2018-07-28T16:42:57.480Z,102558.45
2018-07-28T16:45:26.293Z,102555.84
2018-07-28T16:47:55.210Z,102556.52
2018-07-28T16:50:23.911Z,102551.92
2018-07-28T16:52:52.586Z,102555.97
2018-07-28T16:55:21.881Z,102550.94
2018-07-28T16:57:50.615Z,102547.22
2018-07-28T17:00:19.319Z,102553.63
2018-07-28T17:02:47.953Z,102550.36
2018-07-28T17:05:16.675Z,102552.78
2018-07-28T17:07:45.366Z,102551.97
2018-07-28T17:10:14.388Z,102557.94
2018-07-28T17:12:43.019Z,102559.63
2018-07-28T17:15:12.441Z,102554.83
2018-07-28T17:17:41.203Z,102550.98
2018-07-28T17:20:09.986Z,102553.61
2018-07-28T17:22:39.246Z,102544.16
2018-07-28T17:25:08.165Z,102551.52
2018-07-28T17:27:36.939Z,102549.48
2018-07-28T17:30:05.732Z,102548.53
2018-07-28T17:32:34.423Z,102542.82
2018-07-28T17:35:03.227Z,102534.02
2018-07-28T17:37:31.975Z,102532.05
2018-07-28T17:44:02.413Z,102523.67
2018-07-28T17:46:31.315Z,102525.59
2018-07-28T17:52:00.472Z,102521.02
2018-07-28T17:54:29.143Z,102511.98
2018-07-28T17:56:57.810Z,102514.28
2018-07-28T17:59:26.571Z,102516.45
2018-07-28T18:01:55.286Z,102505.98
2018-07-28T18:04:24.063Z,102513.09
2018-07-28T18:06:52.895Z,102514.86
2018-07-28T18:09:21.559Z,102513.94
2018-07-28T18:11:50.574Z,102520.56
2018-07-28T18:14:19.330Z,102518.86
2018-07-28T18:16:48.565Z,102521.91
2018-07-28T18:19:17.246Z,102523.25
2018-07-28T18:21:45.924Z,102526.00
2018-07-28T18:24:14.751Z,102521.06
2018-07-28T18:26:43.542Z,102522.64
2018-07-28T18:29:12.319Z,102519.77
2018-07-28T18:31:41.315Z,102519.41
2018-07-28T18:34:10.015Z,102513.82
2018-07-28T18:36:38.757Z,102516.84
2018-07-28T18:39:09.117Z,102509.06
2018-07-28T18:41:37.978Z,102510.41
2018-07-28T18:44:06.895Z,102517.87
2018-07-28T18:46:35.939Z,102523.18
2018-07-28T18:49:04.568Z,102518.30
2018-07-28T18:51:33.253Z,102513.15
2018-07-28T18:54:02.396Z,102519.56
2018-07-28T18:56:31.122Z,102513.53
2018-07-28T18:58:59.760Z,102510.01
2018-07-28T19:01:28.524Z,102508.95
2018-07-28T19:03:57.194Z,102513.23
2018-07-28T19:06:25.831Z,102516.42
2018-07-28T19:09:00.214Z,102519.03
2018-07-28T19:11:28.906Z,102517.86
2018-07-28T19:14:02.803Z,102513.22
2018-07-28T19:16:31.559Z,102513.34
2018-07-28T19:19:05.373Z,102506.06
2018-07-28T19:21:34.368Z,102504.23
2018-07-28T19:24:04.334Z,102504.28
2018-07-28T19:26:33.217Z,102508.92
2018-07-28T19:29:07.028Z,102508.72
2018-07-28T19:31:35.672Z,102498.70
2018-07-28T19:34:04.428Z,102496.14
2018-07-28T19:36:38.392Z,102503.02
2018-07-28T19:39:08.834Z,102498.50
2018-07-28T19:41:42.587Z,102498.50
2018-07-28T19:44:12.463Z,102497.23
2018-07-28T19:46:41.107Z,102494.06
2018-07-28T19:49:09.932Z,102504.93
2018-07-28T19:51:38.980Z,102503.14
2018-07-28T19:54:07.891Z,102497.64
2018-07-28T19:56:36.660Z,102503.66
2018-07-28T19:59:05.382Z,102496.91
2018-07-28T20:01:34.052Z,102493.53
2018-07-28T20:04:02.814Z,102499.02
2018-07-28T20:06:31.645Z,102506.22
2018-07-28T20:09:00.366Z,102504.14
2018-07-28T20:11:29.118Z,102497.83
2018-07-28T20:13:57.776Z,102501.37
2018-07-28T20:16:26.535Z,102499.20
2018-07-28T20:18:55.237Z,102499.56
2018-07-28T20:21:23.986Z,102494.70
2018-07-28T20:23:52.690Z,102489.95
2018-07-28T20:26:21.554Z,102491.05
2018-07-28T20:28:50.380Z,102491.05
2018-07-28T20:31:19.718Z,102491.66
2018-07-28T20:33:49.663Z,102484.00
2018-07-28T20:36:18.561Z,102493.05
2018-07-28T20:38:47.357Z,102491.86
2018-07-28T20:41:16.024Z,102488.53
2018-07-28T20:43:44.754Z,102488.06
2018-07-28T20:46:13.710Z,102485.50
2018-07-28T20:48:42.380Z,102484.52
2018-07-28T20:51:11.210Z,102491.14
2018-07-28T20:53:39.774Z,102487.60
2018-07-28T20:56:09.330Z,102491.51
2018-07-28T20:58:39.003Z,102486.14
2018-07-28T21:01:08.473Z,102485.52
2018-07-28T21:03:37.409Z,102482.25
2018-07-28T21:06:07.262Z,102477.36
2018-07-28T21:08:37.515Z,102477.84
2018-07-28T21:11:06.738Z,102480.31
2018-07-28T21:13:35.484Z,102481.28
2018-07-28T21:16:05.085Z,102480.18
2018-07-28T21:18:33.792Z,102476.52
2018-07-28T21:21:02.576Z,102474.33
2018-07-28T21:23:31.976Z,102464.84
2018-07-28T21:26:00.753Z,102471.66
2018-07-28T21:28:29.388Z,102463.85
2018-07-28T21:30:58.127Z,102460.31
2018-07-28T21:33:27.768Z,102458.75
2018-07-28T21:35:56.357Z,102454.45
2018-07-28T21:38:25.058Z,102455.91
2018-07-28T21:40:53.881Z,102457.25
2018-07-28T21:43:22.500Z,102448.34
2018-07-28T21:45:51.257Z,102454.46
2018-07-28T21:48:19.992Z,102446.53
2018-07-28T21:50:49.503Z,102449.82
2018-07-28T21:53:19.502Z,102442.90
2018-07-28T21:55:48.124Z,102439.96
2018-07-28T21:58:17.025Z,102427.52
2018-07-28T22:00:55.753Z,102423.16
2018-07-28T22:03:24.612Z,102435.33
2018-07-28T22:05:54.045Z,102435.33
2018-07-28T22:08:23.482Z,102435.81
2018-07-28T22:10:53.047Z,102435.23
2018-07-28T22:13:21.716Z,102440.95
2018-07-28T22:15:51.100Z,102436.94
2018-07-28T22:18:20.170Z,102428.89
2018-07-28T22:20:50.912Z,102433.89
2018-07-28T22:23:19.668Z,102432.41
2018-07-28T22:25:48.326Z,102437.28
2018-07-28T22:28:17.317Z,102433.75
2018-07-28T22:30:46.046Z,102435.84
2018-07-28T22:33:14.758Z,102435.11
2018-07-28T22:35:43.548Z,102433.14
2018-07-28T22:38:12.204Z,102438.77
2018-07-28T22:40:40.836Z,102442.52
2018-07-28T22:43:09.507Z,102445.22
2018-07-28T22:45:38.111Z,102442.66
2018-07-28T22:48:06.788Z,102442.28
2018-07-28T22:50:35.501Z,102441.20
2018-07-28T22:53:04.197Z,102428.14
2018-07-28T22:55:32.938Z,102438.12
2018-07-28T22:58:01.759Z,102430.45
2018-07-28T23:00:30.550Z,102431.08
2018-07-28T23:02:59.538Z,102432.91
2018-07-28T23:05:28.266Z,102429.34
2018-07-28T23:07:56.881Z,102427.52
2018-07-28T23:10:25.635Z,102425.47
2018-07-28T23:12:54.328Z,102425.20
2018-07-28T23:15:22.971Z,102424.61
2018-07-28T23:17:51.792Z,102427.89
2018-07-28T23:20:20.504Z,102420.82
2018-07-28T23:22:49.121Z,102425.58
2018-07-28T23:25:17.857Z,102427.03
2018-07-28T23:27:46.580Z,102425.09
2018-07-28T23:30:15.320Z,102428.62
2018-07-28T23:32:44.241Z,102422.53
2018-07-28T23:35:13.067Z,102418.48
2018-07-28T23:37:41.666Z,102420.30
2018-07-28T23:40:10.332Z,102417.47
2018-07-28T23:42:39.059Z,102419.66
2018-07-28T23:45:07.812Z,102418.65
2018-07-28T23:47:36.594Z,102416.45
2018-07-28T23:50:05.403Z,102413.92
2018-07-28T23:52:34.270Z,102412.58
2018-07-28T23:55:03.094Z,102410.62
2018-07-28T23:57:31.813Z,102410.01
